Lake Levels Lake Levels   »   United States   »   Texas
LAKES RIVERS MARINAS NEWS HOUSES EVENTS MAPS
1,681 Lakes:
Lake Store

Lake Levels in Texas, United States

Lake Name Current
Level
Full Pool +/-
Full Pool
Reading
Date - Time
Alan Henry (TX) 2,209.65 2,224.00 -14.35 2/3/2023  12:30 AM
Amistad (TX) 1,081.62 1,117.00 -35.38 2/3/2023  10:15 AM
Amon Carter (TX) 917.80 920.00 -2.20 2/3/2023  12:00 PM
Aquilla (TX) 531.84 537.50 -5.66 2/3/2023  10:30 AM
Arlington (TX) 549.88 550.00 -0.12 2/3/2023  12:00 AM
Arrowhead (TX) 919.84 926.00 -6.16 2/3/2023  9:00 AM
Athens (TX) 440.45 440.00 0.45 2/3/2023  10:30 AM
Austin (TX) 492.12 492.80 -0.68 2/3/2023  12:00 PM
Bardwell (TX) 421.19 421.00 0.19 2/3/2023  8:30 AM
Belton (TX) 580.15 594.00 -13.85 2/3/2023  10:00 AM
Benbrook (TX) 689.74 694.00 -4.26 2/3/2023  10:00 AM
Bob Sandlin (TX) 337.60 337.50 0.10 2/3/2023  10:09 AM
Bonham (TX) 564.86 565.00 -0.14 2/3/2023  12:00 PM
Brady Creek (TX) 1,732.32 1,743.00 -10.68 2/3/2023  11:45 AM
Bridgeport (TX) 826.99 836.00 -9.01 2/3/2023  11:00 AM
Brownwood (TX) 1,416.22 1,425.00 -8.78 2/3/2023  11:30 AM
Buchanan (TX) 1,002.29 1,020.50 -18.21 2/3/2023  10:05 AM
Caddo (LA TX) 171.00 168.50 2.50 2/3/2023  7:20 AM
Canyon (TX) 898.28 909.00 -10.72 2/3/2023  12:15 AM
Cedar Creek (TX) 319.15 322.00 -2.85 2/3/2023  10:45 AM
Champion Creek (TX) 2,069.77 2,083.00 -13.23 2/3/2023  9:32 AM
Cherokee (TX) 281.00 280.00 1.00 2/3/2023  9:45 AM
Choke Canyon (TX) 196.24 220.50 -24.26 2/3/2023  6:00 AM
Cisco (TX) 1,514.23 1,520.00 -5.77 2/3/2023  5:30 PM
Coleman (TX) 1,712.12 1,718.00 -5.88 2/3/2023  9:30 AM
Coleto Creek (TX) 96.49 98.28 -1.79 2/3/2023  11:00 AM
Colorado City (TX) 2,059.35 2,070.20 -10.85 2/3/2023  9:32 AM
Conroe (TX) 201.48 201.00 0.48 2/3/2023  12:00 PM
Corpus Christi (TX) 90.18 94.00 -3.82 2/3/2023  9:12 AM
Cypress Springs (TX) 179.99 378.00 -198.01 1/19/2023  10:31 AM
E. V. Spence (TX) 1,853.30 1,898.00 -44.70 2/3/2023  2:00 AM
Eagle Mountain (TX) 645.07 649.00 -3.93 2/3/2023  9:00 AM
Falcon (TX) 260.07 301.20 -41.13 2/3/2023  9:45 AM
Fork (TX) 398.42 403.00 -4.58 2/3/2023  10:30 AM
Georgetown (TX) 776.14 791.00 -14.86 2/3/2023  10:00 AM
Graham (TX) 1,070.45 1,075.00 -4.55 2/3/2023  11:00 AM
Granbury (TX) 690.49 693.00 -2.51 2/3/2023  9:50 AM
Granger (TX) 504.36 504.00 0.36 2/3/2023  11:31 AM
Grapevine (TX) 535.53 535.00 0.53 2/3/2023  11:45 AM
Hords Creek (TX) 1,883.28 1,900.00 -16.72 2/3/2023  9:30 AM
Houston (TX) 42.81 42.40 0.41 2/3/2023  11:30 AM
Hubbard Creek (TX) 1,175.70 1,183.00 -7.30 2/3/2023  12:15 AM
Hubert M Moss (TX) 712.17 715.00 -2.83 2/3/2023  9:15 AM
Inks (TX) 887.15 886.90 0.25 2/3/2023  12:00 PM
Jacksonville (TX) 422.32 422.00 0.32 2/3/2023  12:00 AM
JB Thomas (TX) 2,228.21 2,258.00 -29.79 2/3/2023  11:45 AM
Jim Chapman (TX) 438.04 440.00 -1.96 2/3/2023  10:09 AM
Joe Pool (TX) 523.22 522.00 1.22 2/3/2023  9:00 AM
Kemp (TX) 1,134.21 1,144.00 -9.79 2/3/2023  11:15 AM
Kickapoo (TX) 1,037.88 1,045.00 -7.12 2/3/2023  11:00 AM
Lake O' the Pines (TX) 230.42 228.50 1.92 2/3/2023  10:09 AM
Lavon (TX) 491.20 492.00 -0.80 2/3/2023  11:00 AM
Leon (TX) 1,367.56 2/3/2023  12:30 AM
Lewisville (TX) 520.31 522.00 -1.69 2/3/2023  10:15 AM
Limestone (TX) 358.17 363.00 -4.83 2/2/2023  4:30 PM
Livingston (TX) 131.86 131.00 0.86 2/3/2023  12:00 AM
Lyndon B. Johnson (TX) 824.72 825.00 -0.28 2/3/2023  10:05 AM
MacKenzie (TX) 3,006.10 3,100.00 -93.90 2/3/2023  10:30 AM
Marble Falls (TX) 736.46 737.00 -0.54 2/3/2023  10:05 AM
Martin Creek (TX) 306.39 306.00 0.39 2/3/2023  11:30 AM
Medina (TX) 983.38 1,062.00 -78.62 2/3/2023  9:00 AM
Meredith (TX) 2,881.50 2,941.00 -59.50 2/3/2023  11:30 AM
Mexia (TX) 449.20 448.30 0.90 2/3/2023  12:00 PM
Millers Creek (TX) 1,328.06 1,334.00 -5.94 2/3/2023  12:00 AM
Mineral Wells (TX) 860.73 863.00 -2.27 2/3/2023  4:30 PM
Moss Creek (TX) 2,330.48 2,337.00 -6.52 2/3/2023  10:45 AM
Mountain Creek (TX) 457.68 457.00 0.68 2/3/2023  11:45 AM
Murvaul (TX) 267.26 265.50 1.76 2/3/2023  10:09 AM
Nacogdoches (TX) 280.36 279.00 1.36 2/3/2023  10:09 AM
Natural Dam Salt (TX) 2,447.28 2,457.00 -9.72 2/3/2023  12:00 AM
Navarro Mills (TX) 421.91 424.50 -2.59 2/3/2023  11:00 AM
Nocona (TX) 823.02 827.00 -3.98 2/3/2023  10:00 AM
O. C. Fisher (TX) 1,859.79 1,908.00 -48.21 2/3/2023  11:00 AM
O.H. Ivie (TX) 1,528.09 1,551.50 -23.41 2/3/2023  9:45 AM
Oak Creek (TX) 1,988.87 2,000.00 -11.13 2/3/2023  12:00 AM
Palestine (TX) 345.53 345.00 0.53 2/3/2023  11:00 AM
Palo Pinto (TX) 861.06 867.00 -5.94 2/3/2023  2:15 AM
Pat Cleburne (TX) 726.14 733.60 -7.46 2/3/2023  10:00 AM
Pat Mayse (TX) 451.34 451.00 0.34 2/3/2023  10:09 AM
Phantom Hill (TX) 1,628.99 1,635.90 -6.91 2/3/2023  11:30 AM
Possum Kingdom (TX) 993.04 1,000.00 -6.96 2/3/2023  11:45 AM
Proctor (TX) 1,152.84 1,162.00 -9.16 2/3/2023  11:30 AM
Ray Hubbard (TX) 435.77 435.50 0.27 2/3/2023  12:00 PM
Ray Roberts (TX) 631.14 632.50 -1.36 2/3/2023  2:15 AM
Red Bluff (TX) 2,819.44 2,827.13 -7.69 2/3/2023  10:15 AM
Richland Chambers (TX) 310.79 315.00 -4.21 2/3/2023  11:45 AM
Sam Rayburn (TX) 162.39 164.40 -2.01 2/3/2023  12:01 PM
Somerville (TX) 234.38 238.00 -3.62 2/3/2023  11:00 AM
Squaw Creek (TX) 775.21 775.00 0.21 2/3/2023  9:00 AM
Stamford (TX) 1,412.24 1,417.00 -4.76 2/3/2023  11:30 AM
Steinhagen Reservoir (TX) 82.69 82.40 0.29 2/3/2023  10:00 AM
Stillhouse Hollow (TX) 610.19 622.00 -11.81 2/3/2023  12:00 AM
Striker (TX) 293.07 292.93 0.14 2/3/2023  11:45 AM
Tawakoni (TX) 436.80 437.50 -0.70 2/3/2023  10:15 AM
Texana (TX) 44.03 44.00 0.03 2/3/2023  11:00 AM
Texoma (TX) 615.43 617.00 -1.57 2/3/2023  10:00 AM
Toledo Bend (TX LA) 170.67 172.00 -1.33 2/3/2023  11:30 AM
Travis (TX) 639.45 681.00 -41.55 2/3/2023  12:00 PM
Twin Buttes (TX) 1,917.56 1,940.00 -22.44 2/3/2023  12:00 AM
Tyler (TX) 375.10 375.50 -0.40 2/3/2023  12:00 AM
Waco (TX) 450.61 462.00 -11.39 2/3/2023  9:15 AM
Waxahachie (TX) 529.90 2/3/2023  12:00 AM
Weatherford (TX) 888.36 896.00 -7.64 2/3/2023  2:45 AM
White River (TX) 2,348.06 2/3/2023  11:15 AM
Whitney (TX) 526.23 533.00 -6.77 2/3/2023  12:15 AM
Worth (TX) 591.16 594.00 -2.84 2/3/2023  11:00 AM
Wright Patman (TX) 227.12 220.60 6.52 2/3/2023  10:09 AM


CURRENT DAILY STREAMFLOW CONDITIONS
High
90th percentile
75th - 89th percentile
25th - 74th percentile
10th - 24th percentile
10th percentile
Low
Not ranked

The colored dots on this map depict streamflow conditions as a percentile, which is computed from the period of record for the current day of the year. Only stations with at least 30 years of record are used. The gray circles indicate other stations that were not ranked in percentiles either because they have fewer than 30 years of record or because they report parameters other than streamflow. Some stations, for example, measure stage only.
U.S. Daily Streamflow Conditions



U.S. Drought Monitor